sensor_id;sensor_type;location;lat;lon;timestamp;P1;durP1;ratioP1;P2;durP2;ratioP2
47259;SDS011;32999;52.412;4.890;2023-04-08T00:00:36;31.83;;;15.18;;
47259;SDS011;32999;52.412;4.890;2023-04-08T00:05:38;37.75;;;15.20;;
47259;SDS011;32999;52.412;4.890;2023-04-08T00:10:40;38.35;;;15.75;;
47259;SDS011;32999;52.412;4.890;2023-04-08T00:15:43;35.20;;;15.27;;
47259;SDS011;32999;52.412;4.890;2023-04-08T00:20:48;33.63;;;14.95;;
47259;SDS011;32999;52.412;4.890;2023-04-08T00:25:50;33.17;;;14.30;;
47259;SDS011;32999;52.412;4.890;2023-04-08T00:30:53;39.67;;;14.77;;
47259;SDS011;32999;52.412;4.890;2023-04-08T00:35:55;38.40;;;16.88;;
47259;SDS011;32999;52.412;4.890;2023-04-08T00:40:56;35.55;;;15.23;;
47259;SDS011;32999;52.412;4.890;2023-04-08T00:46:00;35.53;;;14.85;;
47259;SDS011;32999;52.412;4.890;2023-04-08T00:51:02;32.13;;;14.10;;
47259;SDS011;32999;52.412;4.890;2023-04-08T00:56:04;32.60;;;14.95;;
47259;SDS011;32999;52.412;4.890;2023-04-08T01:01:11;34.42;;;15.57;;
47259;SDS011;32999;52.412;4.890;2023-04-08T01:06:21;38.55;;;16.05;;
47259;SDS011;32999;52.412;4.890;2023-04-08T01:11:34;31.55;;;14.85;;
47259;SDS011;32999;52.412;4.890;2023-04-08T01:16:48;35.05;;;14.05;;
47259;SDS011;32999;52.412;4.890;2023-04-08T01:21:50;39.17;;;15.60;;
47259;SDS011;32999;52.412;4.890;2023-04-08T01:26:55;111.50;;;16.10;;
47259;SDS011;32999;52.412;4.890;2023-04-08T01:32:00;31.85;;;10.45;;
47259;SDS011;32999;52.412;4.890;2023-04-08T01:37:03;31.95;;;9.93;;
47259;SDS011;32999;52.412;4.890;2023-04-08T01:42:08;30.13;;;9.70;;
47259;SDS011;32999;52.412;4.890;2023-04-08T01:47:10;41.03;;;10.33;;
47259;SDS011;32999;52.412;4.890;2023-04-08T01:52:13;53.95;;;11.10;;
47259;SDS011;32999;52.412;4.890;2023-04-08T01:57:21;59.15;;;11.50;;
47259;SDS011;32999;52.412;4.890;2023-04-08T02:02:24;93.45;;;13.50;;
47259;SDS011;32999;52.412;4.890;2023-04-08T02:07:27;40.08;;;10.30;;
47259;SDS011;32999;52.412;4.890;2023-04-08T02:12:31;46.65;;;11.05;;
47259;SDS011;32999;52.412;4.890;2023-04-08T02:17:35;25.88;;;9.63;;
47259;SDS011;32999;52.412;4.890;2023-04-08T02:22:46;43.38;;;10.25;;
47259;SDS011;32999;52.412;4.890;2023-04-08T02:27:51;95.03;;;13.25;;
47259;SDS011;32999;52.412;4.890;2023-04-08T02:33:04;20.40;;;9.50;;
47259;SDS011;32999;52.412;4.890;2023-04-08T02:38:08;74.15;;;12.75;;
47259;SDS011;32999;52.412;4.890;2023-04-08T03:48:38;9.32;;;6.78;;
47259;SDS011;32999;52.412;4.890;2023-04-08T03:59:54;8.20;;;6.10;;
47259;SDS011;32999;52.412;4.890;2023-04-08T04:05:01;10.15;;;6.30;;
47259;SDS011;32999;52.412;4.890;2023-04-08T04:10:12;9.43;;;5.93;;
47259;SDS011;32999;52.412;4.890;2023-04-08T04:15:28;10.25;;;6.57;;
47259;SDS011;32999;52.412;4.890;2023-04-08T04:26:11;11.70;;;7.45;;
47259;SDS011;32999;52.412;4.890;2023-04-08T04:31:19;13.65;;;7.85;;
47259;SDS011;32999;52.412;4.890;2023-04-08T06:20:10;12.10;;;7.43;;
47259;SDS011;32999;52.412;4.890;2023-04-08T06:25:33;12.60;;;7.68;;
47259;SDS011;32999;52.412;4.890;2023-04-08T06:43:34;9.77;;;5.88;;
47259;SDS011;32999;52.412;4.890;2023-04-08T06:48:51;12.55;;;7.60;;
47259;SDS011;32999;52.412;4.890;2023-04-08T07:29:50;7.50;;;4.70;;
47259;SDS011;32999;52.412;4.890;2023-04-08T07:35:14;8.15;;;4.63;;
47259;SDS011;32999;52.412;4.890;2023-04-08T07:40:23;9.82;;;4.22;;
47259;SDS011;32999;52.412;4.890;2023-04-08T07:45:26;6.40;;;3.80;;
47259;SDS011;32999;52.412;4.890;2023-04-08T07:50:28;6.63;;;4.53;;
47259;SDS011;32999;52.412;4.890;2023-04-08T07:55:32;8.18;;;4.20;;
47259;SDS011;32999;52.412;4.890;2023-04-08T08:00:35;6.78;;;4.13;;
47259;SDS011;32999;52.412;4.890;2023-04-08T08:05:40;7.82;;;4.50;;
47259;SDS011;32999;52.412;4.890;2023-04-08T08:10:47;5.53;;;3.65;;
47259;SDS011;32999;52.412;4.890;2023-04-08T08:16:00;5.70;;;4.18;;
47259;SDS011;32999;52.412;4.890;2023-04-08T08:21:02;8.43;;;5.00;;
47259;SDS011;32999;52.412;4.890;2023-04-08T08:26:04;9.77;;;6.38;;
47259;SDS011;32999;52.412;4.890;2023-04-08T08:31:21;8.13;;;4.97;;
47259;SDS011;32999;52.412;4.890;2023-04-08T08:36:26;11.57;;;6.18;;
47259;SDS011;32999;52.412;4.890;2023-04-08T08:41:48;10.10;;;6.90;;
47259;SDS011;32999;52.412;4.890;2023-04-08T08:46:51;10.55;;;6.18;;
47259;SDS011;32999;52.412;4.890;2023-04-08T08:51:57;8.13;;;6.17;;
47259;SDS011;32999;52.412;4.890;2023-04-08T08:57:00;8.07;;;6.68;;
47259;SDS011;32999;52.412;4.890;2023-04-08T09:02:03;14.10;;;8.18;;
47259;SDS011;32999;52.412;4.890;2023-04-08T09:07:38;7.00;;;5.47;;
47259;SDS011;32999;52.412;4.890;2023-04-08T09:18:01;7.93;;;6.05;;
47259;SDS011;32999;52.412;4.890;2023-04-08T09:23:03;7.72;;;5.80;;
47259;SDS011;32999;52.412;4.890;2023-04-08T09:28:17;8.18;;;6.22;;
47259;SDS011;32999;52.412;4.890;2023-04-08T09:33:28;9.15;;;6.70;;
47259;SDS011;32999;52.412;4.890;2023-04-08T09:38:31;8.02;;;5.65;;
47259;SDS011;32999;52.412;4.890;2023-04-08T09:43:35;8.55;;;6.18;;
47259;SDS011;32999;52.412;4.890;2023-04-08T09:48:48;7.60;;;6.20;;
47259;SDS011;32999;52.412;4.890;2023-04-08T09:53:54;6.95;;;5.22;;
47259;SDS011;32999;52.412;4.890;2023-04-08T09:59:01;8.45;;;6.47;;
47259;SDS011;32999;52.412;4.890;2023-04-08T10:04:11;8.57;;;6.18;;
47259;SDS011;32999;52.412;4.890;2023-04-08T10:09:35;8.60;;;5.95;;
47259;SDS011;32999;52.412;4.890;2023-04-08T10:14:38;9.43;;;6.93;;
47259;SDS011;32999;52.412;4.890;2023-04-08T10:19:41;6.75;;;5.78;;
47259;SDS011;32999;52.412;4.890;2023-04-08T10:24:46;9.53;;;6.47;;
47259;SDS011;32999;52.412;4.890;2023-04-08T10:35:43;8.52;;;5.93;;
47259;SDS011;32999;52.412;4.890;2023-04-08T10:41:22;9.90;;;6.82;;
47259;SDS011;32999;52.412;4.890;2023-04-08T10:46:36;9.07;;;7.20;;
47259;SDS011;32999;52.412;4.890;2023-04-08T10:51:40;9.00;;;6.18;;
47259;SDS011;32999;52.412;4.890;2023-04-08T10:56:50;7.00;;;5.70;;
47259;SDS011;32999;52.412;4.890;2023-04-08T11:01:53;8.77;;;6.13;;
47259;SDS011;32999;52.412;4.890;2023-04-08T11:06:56;8.23;;;5.95;;
47259;SDS011;32999;52.412;4.890;2023-04-08T11:12:12;7.88;;;6.53;;
47259;SDS011;32999;52.412;4.890;2023-04-08T11:17:18;8.18;;;5.28;;
47259;SDS011;32999;52.412;4.890;2023-04-08T11:22:21;8.00;;;5.65;;
47259;SDS011;32999;52.412;4.890;2023-04-08T11:27:23;8.15;;;4.93;;
47259;SDS011;32999;52.412;4.890;2023-04-08T11:32:26;6.33;;;5.00;;
47259;SDS011;32999;52.412;4.890;2023-04-08T11:37:36;18.73;;;7.00;;
47259;SDS011;32999;52.412;4.890;2023-04-08T11:42:38;8.50;;;5.00;;
47259;SDS011;32999;52.412;4.890;2023-04-08T11:47:40;6.30;;;4.65;;
47259;SDS011;32999;52.412;4.890;2023-04-08T11:52:48;7.72;;;4.82;;
47259;SDS011;32999;52.412;4.890;2023-04-08T11:57:56;9.50;;;6.05;;
47259;SDS011;32999;52.412;4.890;2023-04-08T12:03:03;8.25;;;5.75;;
47259;SDS011;32999;52.412;4.890;2023-04-08T12:08:16;11.77;;;6.75;;
47259;SDS011;32999;52.412;4.890;2023-04-08T12:13:18;9.10;;;6.07;;
47259;SDS011;32999;52.412;4.890;2023-04-08T12:18:28;7.45;;;5.45;;
47259;SDS011;32999;52.412;4.890;2023-04-08T12:34:48;7.75;;;6.15;;
47259;SDS011;32999;52.412;4.890;2023-04-08T12:39:51;11.68;;;7.53;;
47259;SDS011;32999;52.412;4.890;2023-04-08T12:44:53;14.23;;;8.02;;
47259;SDS011;32999;52.412;4.890;2023-04-08T12:49:55;11.23;;;7.47;;
47259;SDS011;32999;52.412;4.890;2023-04-08T12:54:58;11.20;;;7.57;;
47259;SDS011;32999;52.412;4.890;2023-04-08T13:00:00;11.80;;;7.97;;
47259;SDS011;32999;52.412;4.890;2023-04-08T13:05:03;14.88;;;8.07;;
47259;SDS011;32999;52.412;4.890;2023-04-08T13:10:11;10.32;;;7.47;;
47259;SDS011;32999;52.412;4.890;2023-04-08T13:15:38;10.27;;;7.82;;
47259;SDS011;32999;52.412;4.890;2023-04-08T13:20:44;11.25;;;8.05;;
47259;SDS011;32999;52.412;4.890;2023-04-08T13:25:57;11.90;;;7.82;;
47259;SDS011;32999;52.412;4.890;2023-04-08T13:31:00;9.85;;;6.07;;
47259;SDS011;32999;52.412;4.890;2023-04-08T13:36:44;8.20;;;5.82;;
47259;SDS011;32999;52.412;4.890;2023-04-08T13:41:47;14.10;;;8.40;;
47259;SDS011;32999;52.412;4.890;2023-04-08T13:46:49;12.43;;;8.10;;
47259;SDS011;32999;52.412;4.890;2023-04-08T13:51:52;12.95;;;8.75;;
47259;SDS011;32999;52.412;4.890;2023-04-08T13:56:55;11.70;;;8.93;;
47259;SDS011;32999;52.412;4.890;2023-04-08T14:01:59;13.88;;;10.05;;
47259;SDS011;32999;52.412;4.890;2023-04-08T14:07:01;12.88;;;9.38;;
47259;SDS011;32999;52.412;4.890;2023-04-08T14:12:04;14.35;;;9.13;;
47259;SDS011;32999;52.412;4.890;2023-04-08T14:17:06;15.18;;;10.88;;
47259;SDS011;32999;52.412;4.890;2023-04-08T14:22:22;14.48;;;11.13;;
47259;SDS011;32999;52.412;4.890;2023-04-08T14:27:29;14.00;;;10.27;;
47259;SDS011;32999;52.412;4.890;2023-04-08T14:32:32;13.38;;;9.73;;
47259;SDS011;32999;52.412;4.890;2023-04-08T14:37:40;13.00;;;9.70;;
47259;SDS011;32999;52.412;4.890;2023-04-08T14:42:48;13.27;;;9.38;;
47259;SDS011;32999;52.412;4.890;2023-04-08T14:47:50;12.32;;;9.00;;
47259;SDS011;32999;52.412;4.890;2023-04-08T14:53:08;13.43;;;9.02;;
47259;SDS011;32999;52.412;4.890;2023-04-08T14:58:11;17.40;;;11.48;;
47259;SDS011;32999;52.412;4.890;2023-04-08T15:03:13;11.27;;;6.88;;
47259;SDS011;32999;52.412;4.890;2023-04-08T15:08:25;9.18;;;6.13;;
47259;SDS011;32999;52.412;4.890;2023-04-08T15:13:41;9.02;;;6.65;;
47259;SDS011;32999;52.412;4.890;2023-04-08T15:18:47;8.55;;;6.68;;
47259;SDS011;32999;52.412;4.890;2023-04-08T15:23:49;9.57;;;6.65;;
47259;SDS011;32999;52.412;4.890;2023-04-08T15:28:56;10.65;;;7.75;;
47259;SDS011;32999;52.412;4.890;2023-04-08T15:33:59;12.18;;;8.88;;
47259;SDS011;32999;52.412;4.890;2023-04-08T15:39:02;10.93;;;7.95;;
47259;SDS011;32999;52.412;4.890;2023-04-08T15:44:11;11.18;;;8.20;;
47259;SDS011;32999;52.412;4.890;2023-04-08T15:49:20;11.70;;;8.00;;
47259;SDS011;32999;52.412;4.890;2023-04-08T15:54:21;12.35;;;8.60;;
47259;SDS011;32999;52.412;4.890;2023-04-08T15:59:27;12.65;;;7.80;;
47259;SDS011;32999;52.412;4.890;2023-04-08T16:04:44;14.05;;;9.18;;
47259;SDS011;32999;52.412;4.890;2023-04-08T16:09:45;11.85;;;8.90;;
47259;SDS011;32999;52.412;4.890;2023-04-08T16:14:49;11.27;;;7.95;;
47259;SDS011;32999;52.412;4.890;2023-04-08T16:19:59;12.00;;;8.15;;
47259;SDS011;32999;52.412;4.890;2023-04-08T16:25:05;12.48;;;8.32;;
47259;SDS011;32999;52.412;4.890;2023-04-08T16:30:13;11.05;;;8.10;;
47259;SDS011;32999;52.412;4.890;2023-04-08T16:35:19;12.85;;;8.77;;
47259;SDS011;32999;52.412;4.890;2023-04-08T16:40:36;13.93;;;9.20;;
47259;SDS011;32999;52.412;4.890;2023-04-08T16:45:41;13.27;;;9.40;;
47259;SDS011;32999;52.412;4.890;2023-04-08T16:50:44;12.38;;;8.65;;
47259;SDS011;32999;52.412;4.890;2023-04-08T16:55:49;14.85;;;8.75;;
47259;SDS011;32999;52.412;4.890;2023-04-08T17:00:53;13.38;;;8.82;;
47259;SDS011;32999;52.412;4.890;2023-04-08T17:06:04;13.43;;;8.63;;
47259;SDS011;32999;52.412;4.890;2023-04-08T17:11:08;14.52;;;9.20;;
47259;SDS011;32999;52.412;4.890;2023-04-08T17:21:52;13.18;;;9.20;;
47259;SDS011;32999;52.412;4.890;2023-04-08T17:26:54;13.35;;;8.65;;
47259;SDS011;32999;52.412;4.890;2023-04-08T17:31:58;11.82;;;8.18;;
47259;SDS011;32999;52.412;4.890;2023-04-08T17:37:15;11.63;;;8.73;;
47259;SDS011;32999;52.412;4.890;2023-04-08T17:42:17;10.70;;;8.30;;
47259;SDS011;32999;52.412;4.890;2023-04-08T17:47:23;13.52;;;8.65;;
47259;SDS011;32999;52.412;4.890;2023-04-08T17:52:35;11.93;;;8.55;;
47259;SDS011;32999;52.412;4.890;2023-04-08T18:03:43;13.65;;;8.90;;
47259;SDS011;32999;52.412;4.890;2023-04-08T18:09:07;13.55;;;9.10;;
47259;SDS011;32999;52.412;4.890;2023-04-08T18:14:08;12.82;;;8.60;;
47259;SDS011;32999;52.412;4.890;2023-04-08T18:25:11;16.92;;;9.65;;
47259;SDS011;32999;52.412;4.890;2023-04-08T18:30:13;14.65;;;9.07;;
47259;SDS011;32999;52.412;4.890;2023-04-08T18:41:41;15.35;;;9.65;;
47259;SDS011;32999;52.412;4.890;2023-04-08T18:53:43;17.05;;;11.25;;
47259;SDS011;32999;52.412;4.890;2023-04-08T18:58:24;16.58;;;10.75;;
47259;SDS011;32999;52.412;4.890;2023-04-08T19:04:14;15.97;;;10.23;;
47259;SDS011;32999;52.412;4.890;2023-04-08T19:09:07;16.05;;;10.02;;
47259;SDS011;32999;52.412;4.890;2023-04-08T19:32:38;16.70;;;10.63;;
47259;SDS011;32999;52.412;4.890;2023-04-08T21:28:36;17.77;;;11.55;;
47259;SDS011;32999;52.412;4.890;2023-04-08T21:33:39;20.23;;;12.35;;
47259;SDS011;32999;52.412;4.890;2023-04-08T21:38:42;22.77;;;12.65;;
47259;SDS011;32999;52.412;4.890;2023-04-08T21:44:00;26.40;;;13.77;;
47259;SDS011;32999;52.412;4.890;2023-04-08T21:49:03;19.23;;;12.77;;
47259;SDS011;32999;52.412;4.890;2023-04-08T21:54:25;22.55;;;13.18;;
47259;SDS011;32999;52.412;4.890;2023-04-08T21:59:28;24.10;;;12.85;;
47259;SDS011;32999;52.412;4.890;2023-04-08T22:04:30;23.67;;;13.35;;
47259;SDS011;32999;52.412;4.890;2023-04-08T22:09:32;24.70;;;14.35;;
47259;SDS011;32999;52.412;4.890;2023-04-08T22:14:36;25.77;;;14.05;;
47259;SDS011;32999;52.412;4.890;2023-04-08T22:19:37;25.25;;;13.93;;
47259;SDS011;32999;52.412;4.890;2023-04-08T22:24:39;24.65;;;15.13;;
47259;SDS011;32999;52.412;4.890;2023-04-08T22:29:42;24.17;;;14.23;;
47259;SDS011;32999;52.412;4.890;2023-04-08T22:34:44;28.23;;;16.13;;
47259;SDS011;32999;52.412;4.890;2023-04-08T22:39:46;24.55;;;14.98;;
47259;SDS011;32999;52.412;4.890;2023-04-08T22:44:49;26.02;;;15.57;;
47259;SDS011;32999;52.412;4.890;2023-04-08T22:49:50;24.77;;;15.27;;
47259;SDS011;32999;52.412;4.890;2023-04-08T22:54:52;27.10;;;16.73;;
47259;SDS011;32999;52.412;4.890;2023-04-08T22:59:55;30.52;;;16.65;;
47259;SDS011;32999;52.412;4.890;2023-04-08T23:04:57;28.35;;;16.50;;
47259;SDS011;32999;52.412;4.890;2023-04-08T23:09:59;26.60;;;16.42;;
47259;SDS011;32999;52.412;4.890;2023-04-08T23:15:02;28.05;;;15.77;;
47259;SDS011;32999;52.412;4.890;2023-04-08T23:20:05;27.40;;;16.33;;
47259;SDS011;32999;52.412;4.890;2023-04-08T23:25:07;25.52;;;17.05;;
47259;SDS011;32999;52.412;4.890;2023-04-08T23:30:11;27.73;;;16.30;;
47259;SDS011;32999;52.412;4.890;2023-04-08T23:35:13;28.55;;;15.15;;
47259;SDS011;32999;52.412;4.890;2023-04-08T23:40:15;26.05;;;16.50;;
47259;SDS011;32999;52.412;4.890;2023-04-08T23:50:37;28.80;;;17.23;;
47259;SDS011;32999;52.412;4.890;2023-04-08T23:55:39;29.08;;;17.00;;
